Time;durP1;ratioP1;P1;durP2;ratioP2;P2;SDS_P1;SDS_P2;PMS_P1;PMS_P2;Temp;Humidity;BMP_temperature;BMP_pressure;BME280_temperature;BME280_humidity;BME280_pressure;Samples;Min_cycle;Max_cycle;Signal;HPM_P1;HPM_P2
2023/01/30 00:02:16;;;;;;;22.90;11.45;;;;;;;;;;4958536;28;20124;-67
2023/01/30 00:04:42;;;;;;;25.15;11.82;;;;;;;;;;4940197;28;20039;-68
2023/01/30 00:07:08;;;;;;;23.55;11.85;;;;;;;;;;4961203;28;20047;-68
2023/01/30 00:09:34;;;;;;;21.70;12.07;;;;;;;;;;4943242;28;20049;-67
2023/01/30 00:11:59;;;;;;;21.58;11.93;;;6.90;99.90;;;;;;4961243;28;20052;-68
2023/01/30 00:14:25;;;;;;;22.55;11.55;;;;;;;;;;4958871;28;20405;-68
2023/01/30 00:16:51;;;;;;;23.73;10.40;;;;;;;;;;4944169;28;20500;-68
2023/01/30 00:19:17;;;;;;;26.17;12.30;;;;;;;;;;4959916;28;20059;-68
2023/01/30 00:21:43;;;;;;;27.15;11.25;;;;;;;;;;4946424;28;20043;-68
2023/01/30 00:24:09;;;;;;;24.52;11.25;;;;;;;;;;4958033;28;20094;-68
2023/01/30 00:26:35;;;;;;;25.83;10.95;;;;;;;;;;4944428;28;20046;-68
2023/01/30 00:29:01;;;;;;;27.65;10.82;;;7.00;99.90;;;;;;4941617;28;20555;-67
2023/01/30 00:31:27;;;;;;;24.85;11.10;;;;;;;;;;4965271;28;20117;-68
2023/01/30 00:33:52;;;;;;;23.17;10.90;;;;;;;;;;4961468;28;20267;-68
2023/01/30 00:36:18;;;;;;;23.85;10.10;;;7.20;99.90;;;;;;4943678;28;20047;-68
2023/01/30 00:38:44;;;;;;;17.08;9.50;;;;;;;;;;4943233;29;20416;-68
2023/01/30 00:41:12;;;;;;;19.77;9.20;;;7.10;99.90;;;;;;4936495;28;20398;-68
2023/01/30 00:49:09;;;;;;;18.02;9.82;;;;;;;;;;4949248;28;20047;-67
2023/01/30 00:51:35;;;;;;;16.52;7.78;;;;;;;;;;4957157;28;20382;-68
2023/01/30 00:54:01;;;;;;;19.77;8.10;;;;;;;;;;4961280;28;20042;-67
2023/01/30 00:56:27;;;;;;;16.88;9.43;;;;;;;;;;4949543;28;20078;-67
2023/01/30 00:58:53;;;;;;;18.08;7.53;;;;;;;;;;4940000;29;20085;-68
2023/01/30 01:01:19;;;;;;;19.95;7.47;;;;;;;;;;4961526;28;20050;-68
2023/01/30 01:03:45;;;;;;;16.67;8.20;;;;;;;;;;4963673;28;20552;-68
2023/01/30 01:06:11;;;;;;;19.23;7.78;;;;;;;;;;4956473;28;20112;-67
2023/01/30 01:08:37;;;;;;;13.82;7.55;;;;;;;;;;4964822;28;20050;-68
2023/01/30 01:11:03;;;;;;;14.93;6.85;;;;;;;;;;4937677;28;20047;-68
2023/01/30 01:13:29;;;;;;;15.10;8.50;;;;;;;;;;4961105;28;20415;-68
2023/01/30 01:15:55;;;;;;;20.25;8.90;;;;;;;;;;4941728;28;20583;-68
2023/01/30 01:18:21;;;;;;;14.40;6.03;;;;;;;;;;4947873;28;20139;-68
2023/01/30 01:20:47;;;;;;;21.35;6.65;;;;;;;;;;4942845;28;20525;-68
2023/01/30 01:23:13;;;;;;;22.00;6.72;;;;;;;;;;4955995;28;20122;-68
2023/01/30 01:25:39;;;;;;;17.52;6.10;;;;;;;;;;4944677;28;20051;-68
2023/01/30 01:28:05;;;;;;;15.25;6.03;;;;;;;;;;4957125;28;20058;-68
2023/01/30 01:30:31;;;;;;;15.18;6.07;;;;;;;;;;4962734;28;20053;-68
2023/01/30 01:32:57;;;;;;;12.40;5.80;;;;;;;;;;4963023;28;20051;-68
2023/01/30 01:35:23;;;;;;;11.75;5.72;;;;;;;;;;4959365;28;20047;-67
2023/01/30 01:37:53;;;;;;;12.20;6.10;;;;;;;;;;4962623;28;20877;-68
2023/01/30 01:43:04;;;;;;;;;;;;;;;;;;4964831;28;20477;-68
2023/01/30 01:45:30;;;;;;;12.60;4.75;;;;;;;;;;4955222;28;19977;-67
2023/01/30 01:48:02;;;;;;;16.23;5.15;;;;;;;;;;4962340;28;20043;-68
2023/01/30 01:50:31;;;;;;;14.50;5.55;;;;;;;;;;4956240;28;20053;-68
2023/01/30 01:52:58;;;;;;;9.32;5.30;;;;;;;;;;4941481;28;20048;-68
2023/01/30 01:55:24;;;;;;;20.55;6.72;;;;;;;;;;4955353;28;20050;-68
2023/01/30 01:57:54;;;;;;;10.52;4.38;;;;;;;;;;4941224;28;20130;-68
2023/01/30 02:00:21;;;;;;;10.70;5.25;;;;;;;;;;4955434;28;20228;-68
2023/01/30 02:02:58;;;;;;;15.02;6.30;;;;;;;;;;4942567;28;20058;-68
2023/01/30 02:05:25;;;;;;;15.32;5.28;;;;;;;;;;4957273;28;20117;-68
2023/01/30 02:08:04;;;;;;;18.23;5.60;;;;;;;;;;4960343;28;20047;-68
2023/01/30 02:10:40;;;;;;;12.75;5.53;;;;;;;;;;4955699;28;20045;-68
2023/01/30 02:13:06;;;;;;;9.43;4.65;;;;;;;;;;4953627;28;20049;-68
2023/01/30 02:15:32;;;;;;;17.77;4.55;;;;;;;;;;4957784;28;20043;-68
2023/01/30 02:17:58;;;;;;;12.20;4.53;;;;;;;;;;4935922;28;20069;-68
2023/01/30 02:21:03;;;;;;;10.55;4.72;;;;;;;;;;4962594;28;20047;-67
2023/01/30 02:23:42;;;;;;;12.57;4.82;;;;;;;;;;4906288;29;20079;-68
2023/01/30 02:26:08;;;;;;;14.10;4.43;;;;;;;;;;4906670;29;20052;-68
2023/01/30 02:28:51;;;;;;;24.98;5.82;;;;;;;;;;4935171;28;20062;-68
2023/01/30 02:31:32;;;;;;;13.73;5.05;;;7.30;99.90;;;;;;4939271;28;20106;-68
2023/01/30 02:34:20;;;;;;;14.50;4.95;;;;;;;;;;4961238;28;20051;-68
2023/01/30 02:36:51;;;;;;;16.80;5.78;;;;;;;;;;4943619;28;20523;-68
2023/01/30 02:39:32;;;;;;;12.88;4.53;;;;;;;;;;4964251;28;20047;-68
2023/01/30 02:41:58;;;;;;;15.35;4.70;;;;;;;;;;4956234;28;20058;-68
2023/01/30 02:44:36;;;;;;;11.43;4.47;;;7.40;99.90;;;;;;4942513;28;20043;-67
2023/01/30 02:47:02;;;;;;;18.13;4.90;;;;;;;;;;4945129;29;20451;-68
2023/01/30 02:50:03;;;;;;;18.00;5.85;;;;;;;;;;4963465;28;20031;-68
2023/01/30 02:52:30;;;;;;;12.57;5.10;;;;;;;;;;4905944;29;20072;-68
2023/01/30 02:54:56;;;;;;;19.90;4.90;;;;;;;;;;4946547;28;20046;-68
2023/01/30 02:57:23;;;;;;;12.13;4.78;;;;;;;;;;4945073;28;20038;-68
2023/01/30 02:59:53;;;;;;;17.70;5.93;;;;;;;;;;4956861;28;20046;-68
2023/01/30 03:02:49;;;;;;;18.17;4.78;;;7.40;99.90;;;;;;4935501;28;20049;-68
2023/01/30 03:05:24;;;;;;;18.88;4.47;;;;;;;;;;4931553;29;20118;-68
2023/01/30 03:07:56;;;;;;;20.13;5.15;;;;;;;;;;4940898;28;20101;-68
2023/01/30 03:10:22;;;;;;;18.88;5.57;;;;;;;;;;4960364;28;20048;-68
2023/01/30 03:12:50;;;;;;;21.33;5.20;;;;;;;;;;4938075;28;20684;-68
2023/01/30 03:15:16;;;;;;;15.50;4.95;;;;;;;;;;4960161;28;20043;-68
2023/01/30 03:17:44;;;;;;;23.20;4.78;;;;;;;;;;4940806;28;20788;-68
2023/01/30 03:20:11;;;;;;;24.33;5.10;;;;;;;;;;4937917;28;20050;-68
2023/01/30 03:22:37;;;;;;;11.93;4.55;;;;;;;;;;4941595;28;20078;-68
2023/01/30 03:25:03;;;;;;;15.75;5.05;;;7.50;99.90;;;;;;4958158;28;20066;-68
2023/01/30 03:27:29;;;;;;;16.58;4.85;;;;;;;;;;4957284;28;20050;-68
2023/01/30 03:38:55;;;;;;;14.88;4.80;;;;;;;;;;4973383;28;20149;-67
2023/01/30 03:41:21;;;;;;;23.63;4.38;;;;;;;;;;4980592;28;20105;-68
2023/01/30 03:43:47;;;;;;;15.70;4.28;;;;;;;;;;4947815;28;20160;-68
2023/01/30 03:46:13;;;;;;;18.27;4.53;;;;;;;;;;4978429;28;20054;-68
2023/01/30 03:48:39;;;;;;;17.55;4.70;;;;;;;;;;4960028;28;20556;-68
2023/01/30 03:51:05;;;;;;;15.23;4.07;;;;;;;;;;4980698;28;20140;-68
2023/01/30 03:53:31;;;;;;;17.27;5.13;;;;;;;;;;4954886;28;20059;-68
2023/01/30 03:55:57;;;;;;;13.15;3.83;;;;;;;;;;4974932;28;20046;-68
2023/01/30 03:58:23;;;;;;;15.35;3.95;;;;;;;;;;4954595;28;20046;-68
2023/01/30 04:00:49;;;;;;;15.40;4.90;;;;;;;;;;4976204;28;20863;-68
2023/01/30 04:03:15;;;;;;;29.55;5.10;;;;;;;;;;4955763;28;20050;-68
2023/01/30 04:05:44;;;;;;;14.75;4.35;;;;;;;;;;4976962;28;21378;-67
2023/01/30 04:08:10;;;;;;;14.18;4.10;;;;;;;;;;4958330;28;20066;-67
2023/01/30 04:10:36;;;;;;;21.13;5.90;;;;;;;;;;4962675;28;20157;-68
2023/01/30 04:13:02;;;;;;;17.20;4.72;;;;;;;;;;4979661;28;20043;-68
2023/01/30 04:15:28;;;;;;;21.10;4.53;;;;;;;;;;4976606;28;20479;-68
2023/01/30 04:17:54;;;;;;;15.65;4.93;;;;;;;;;;4964492;28;20038;-68
2023/01/30 04:20:20;;;;;;;16.52;4.05;;;;;;;;;;4961759;28;20057;-68
2023/01/30 04:22:46;;;;;;;18.92;4.03;;;;;;;;;;4960940;28;20042;-68
2023/01/30 04:25:12;;;;;;;27.15;4.70;;;;;;;;;;4961260;28;20455;-68
2023/01/30 04:27:38;;;;;;;22.73;4.57;;;;;;;;;;4957494;28;20038;-67
2023/01/30 04:30:04;;;;;;;21.92;4.03;;;7.40;99.90;;;;;;4977262;28;20077;-68
2023/01/30 04:32:30;;;;;;;15.38;3.83;;;;;;;;;;4978340;28;20039;-68
2023/01/30 04:34:56;;;;;;;20.45;4.80;;;;;;;;;;4962178;28;20079;-67
2023/01/30 04:37:22;;;;;;;23.52;4.40;;;;;;;;;;4961030;28;20055;-68
2023/01/30 04:39:48;;;;;;;16.38;3.78;;;7.40;99.90;;;;;;4959546;28;20054;-68
2023/01/30 04:42:14;;;;;;;13.00;3.53;;;;;;;;;;4961914;28;20475;-68
2023/01/30 04:44:40;;;;;;;22.10;4.20;;;;;;;;;;4976876;28;20049;-68
2023/01/30 04:47:06;;;;;;;25.10;5.13;;;;;;;;;;4981922;28;20050;-68
2023/01/30 04:49:32;;;;;;;22.25;5.40;;;;;;;;;;4974864;28;20035;-68
2023/01/30 04:51:58;;;;;;;20.42;4.53;;;7.50;99.90;;;;;;4963844;28;20687;-68
2023/01/30 04:54:23;;;;;;;23.33;5.10;;;;;;;;;;4972657;28;20039;-68
2023/01/30 04:56:49;;;;;;;14.55;4.03;;;;;;;;;;4975011;28;20042;-68
2023/01/30 04:59:15;;;;;;;21.02;4.85;;;;;;;;;;4959983;28;20042;-67
2023/01/30 05:01:41;;;;;;;20.25;3.60;;;;;;;;;;4957501;28;20492;-68
2023/01/30 05:04:08;;;;;;;14.43;3.58;;;;;;;;;;4976089;28;20060;-68
2023/01/30 05:06:34;;;;;;;21.58;3.90;;;;;;;;;;4978596;28;20046;-68
2023/01/30 05:09:00;;;;;;;17.90;4.22;;;;;;;;;;4972419;28;20057;-68
2023/01/30 05:11:28;;;;;;;23.63;3.60;;;;;;;;;;4978006;28;20127;-68
2023/01/30 05:13:54;;;;;;;26.83;4.88;;;;;;;;;;4977414;28;20035;-68
2023/01/30 05:16:20;;;;;;;23.95;3.70;;;;;;;;;;4977035;28;20758;-68
2023/01/30 05:18:46;;;;;;;18.48;4.00;;;;;;;;;;4955183;28;20130;-68
2023/01/30 05:21:13;;;;;;;15.73;3.85;;;;;;;;;;4958259;28;20125;-68
2023/01/30 05:23:39;;;;;;;19.65;4.28;;;;;;;;;;4957426;28;20074;-68
2023/01/30 05:26:05;;;;;;;28.05;4.43;;;;;;;;;;4958562;28;20164;-68
2023/01/30 05:28:32;;;;;;;18.70;4.03;;;;;;;;;;4956680;28;20403;-68
2023/01/30 05:31:01;;;;;;;20.10;3.30;;;;;;;;;;4979632;28;20081;-68
2023/01/30 05:33:28;;;;;;;18.15;3.85;;;;;;;;;;4979779;28;20066;-68
2023/01/30 05:35:53;;;;;;;22.98;4.10;;;;;;;;;;4960617;28;20051;-68
2023/01/30 05:38:21;;;;;;;21.45;3.55;;;;;;;;;;4973630;28;20047;-68
2023/01/30 05:40:47;;;;;;;17.55;3.65;;;;;;;;;;4979065;28;20643;-68
2023/01/30 05:43:13;;;;;;;27.52;3.60;;;;;;;;;;4956277;28;20129;-68
2023/01/30 05:45:39;;;;;;;22.48;3.40;;;;;;;;;;4962279;28;20043;-68
2023/01/30 05:48:05;;;;;;;24.08;3.58;;;;;;;;;;4973276;28;20089;-68
2023/01/30 05:50:31;;;;;;;24.67;4.45;;;;;;;;;;4973410;28;20055;-68
2023/01/30 05:52:57;;;;;;;21.63;3.53;;;;;;;;;;4977400;28;20038;-68
2023/01/30 05:55:23;;;;;;;26.20;4.47;;;;;;;;;;4962292;28;20092;-68
2023/01/30 05:57:49;;;;;;;19.45;3.95;;;;;;;;;;4956969;28;20481;-67
2023/01/30 06:00:15;;;;;;;16.65;3.40;;;;;;;;;;4953835;28;20057;-67
2023/01/30 06:02:41;;;;;;;20.75;3.88;;;;;;;;;;4975560;28;20042;-68
2023/01/30 06:05:07;;;;;;;22.52;4.00;;;;;;;;;;4955234;28;20046;-67
2023/01/30 06:07:33;;;;;;;16.90;3.20;;;;;;;;;;4973806;28;20152;-68
2023/01/30 06:09:59;;;;;;;20.23;3.70;;;;;;;;;;4968954;28;20154;-68
2023/01/30 06:12:25;;;;;;;20.48;4.18;;;;;;;;;;4952971;28;20066;-68
2023/01/30 06:14:51;;;;;;;26.95;4.90;;;;;;;;;;4960056;28;20050;-68
2023/01/30 06:17:17;;;;;;;18.75;3.80;;;6.40;99.90;;;;;;4976360;28;20051;-68
2023/01/30 06:19:43;;;;;;;26.17;4.25;;;;;;;;;;4977776;28;20774;-68
2023/01/30 06:22:08;;;;;;;23.38;3.90;;;;;;;;;;4953097;28;20042;-68
2023/01/30 06:24:34;;;;;;;21.20;3.60;;;;;;;;;;4976373;28;20152;-68
2023/01/30 06:27:00;;;;;;;25.40;4.78;;;;;;;;;;4973837;28;20055;-68
2023/01/30 06:29:26;;;;;;;22.50;4.75;;;;;;;;;;4955686;28;20126;-67
2023/01/30 06:31:52;;;;;;;23.52;4.40;;;6.50;99.90;;;;;;4977735;28;20043;-67
2023/01/30 06:34:18;;;;;;;22.40;3.55;;;;;;;;;;4975056;28;20717;-68
2023/01/30 06:36:44;;;;;;;20.00;3.78;;;;;;;;;;4976823;28;20039;-68
2023/01/30 06:39:10;;;;;;;19.73;3.95;;;;;;;;;;4959079;28;20756;-68
2023/01/30 06:41:36;;;;;;;20.17;4.20;;;;;;;;;;4955845;28;20042;-68
2023/01/30 06:44:02;;;;;;;20.38;3.95;;;;;;;;;;4955440;28;20054;-67
2023/01/30 06:46:27;;;;;;;22.92;4.65;;;6.60;99.90;;;;;;4970749;28;20053;-68
2023/01/30 06:48:53;;;;;;;17.33;3.92;;;;;;;;;;4954315;28;20043;-68
2023/01/30 06:51:19;;;;;;;14.95;4.18;;;;;;;;;;4958592;28;20046;-68
2023/01/30 06:53:45;;;;;;;31.95;6.10;;;;;;;;;;4976078;28;20047;-68
2023/01/30 06:56:11;;;;;;;26.60;4.47;;;6.40;99.90;;;;;;4958183;28;20113;-68
2023/01/30 06:58:37;;;;;;;14.70;4.25;;;;;;;;;;4977033;28;20823;-68
2023/01/30 07:01:03;;;;;;;28.15;4.45;;;;;;;;;;4977268;28;20116;-68
2023/01/30 07:03:29;;;;;;;22.92;3.60;;;;;;;;;;4955353;28;20050;-68
2023/01/30 07:05:55;;;;;;;25.60;4.47;;;;;;;;;;4960632;28;20042;-68
2023/01/30 07:08:21;;;;;;;24.27;3.90;;;;;;;;;;4973689;28;20053;-68
2023/01/30 07:10:47;;;;;;;21.13;5.43;;;;;;;;;;4971487;28;20483;-67
2023/01/30 07:13:13;;;;;;;27.40;4.95;;;;;;;;;;4954518;28;20054;-67
2023/01/30 07:15:39;;;;;;;20.90;3.80;;;;;;;;;;4964038;28;20076;-68
2023/01/30 07:18:05;;;;;;;17.00;4.65;;;;;;;;;;4974577;28;20647;-68
2023/01/30 07:20:31;;;;;;;33.30;6.45;;;;;;;;;;4958435;28;20584;-68
2023/01/30 07:22:56;;;;;;;15.00;3.17;;;6.50;99.90;;;;;;4976802;28;20038;-68
2023/01/30 07:25:24;;;;;;;19.73;3.63;;;;;;;;;;4955301;28;20404;-68
2023/01/30 07:27:53;;;;;;;23.90;4.38;;;;;;;;;;4972328;28;20428;-68
2023/01/30 07:30:19;;;;;;;25.27;4.05;;;;;;;;;;4953627;28;20070;-68
2023/01/30 07:32:53;;;;;;;28.08;4.13;;;6.60;99.90;;;;;;4961003;28;20063;-68
2023/01/30 07:35:19;;;;;;;26.05;3.70;;;;;;;;;;4973826;28;20031;-68
2023/01/30 07:37:46;;;;;;;23.35;4.65;;;;;;;;;;4976884;28;20121;-67
2023/01/30 07:40:12;;;;;;;21.10;3.95;;;;;;;;;;4959043;28;20447;-68
2023/01/30 07:42:38;;;;;;;24.70;4.03;;;;;;;;;;4953434;28;20085;-67
2023/01/30 07:45:04;;;;;;;25.75;4.32;;;;;;;;;;4944746;28;20082;-70
2023/01/30 07:47:30;;;;;;;24.08;3.85;;;;;;;;;;4940006;28;20094;-70
2023/01/30 07:49:56;;;;;;;23.52;4.15;;;;;;;;;;4955715;28;20042;-70
2023/01/30 07:52:22;;;;;;;22.13;4.35;;;;;;;;;;4971790;28;20098;-70
2023/01/30 07:54:48;;;;;;;19.58;3.63;;;;;;;;;;4954745;28;20050;-70
2023/01/30 07:57:14;;;;;;;21.50;4.45;;;;;;;;;;4944084;28;20061;-70
2023/01/30 07:59:41;;;;;;;25.75;4.35;;;;;;;;;;4943749;28;20563;-72
2023/01/30 08:02:09;;;;;;;21.88;3.75;;;;;;;;;;4955276;28;20108;-66
2023/01/30 08:04:35;;;;;;;24.23;4.68;;;;;;;;;;4978870;28;20049;-65
2023/01/30 08:07:01;;;;;;;17.23;4.22;;;;;;;;;;4954492;28;20050;-69
2023/01/30 08:09:26;;;;;;;23.65;3.70;;;7.20;99.90;;;;;;4971615;28;20227;-66
2023/01/30 08:11:52;;;;;;;24.67;5.18;;;;;;;;;;4973762;28;20484;-67
2023/01/30 08:14:18;;;;;;;33.95;4.60;;;;;;;;;;4953573;28;20042;-69
2023/01/30 08:16:44;;;;;;;24.05;4.30;;;;;;;;;;4947756;28;20066;-70
2023/01/30 08:19:10;;;;;;;21.58;4.88;;;;;;;;;;4957691;28;20062;-69
2023/01/30 08:21:36;;;;;;;21.40;4.40;;;;;;;;;;4974149;28;20149;-70
2023/01/30 08:24:02;;;;;;;17.70;4.18;;;;;;;;;;4952711;28;20133;-69
2023/01/30 08:26:28;;;;;;;27.67;4.93;;;;;;;;;;4941883;28;20038;-70
2023/01/30 08:28:54;;;;;;;20.52;4.00;;;;;;;;;;4957846;28;20197;-69
2023/01/30 08:31:20;;;;;;;29.40;5.15;;;;;;;;;;4952116;28;20047;-70
2023/01/30 08:33:47;;;;;;;23.98;6.03;;;;;;;;;;4958053;28;20052;-68
2023/01/30 08:36:13;;;;;;;26.25;5.00;;;;;;;;;;4977310;28;20170;-66
2023/01/30 08:38:39;;;;;;;16.20;3.97;;;;;;;;;;4980859;28;20129;-67
2023/01/30 08:41:06;;;;;;;20.73;3.85;;;7.20;99.90;;;;;;4953684;28;20053;-67
2023/01/30 08:43:32;;;;;;;20.40;3.80;;;;;;;;;;4956945;28;20081;-66
2023/01/30 08:45:58;;;;;;;20.60;4.30;;;;;;;;;;4979255;28;20045;-66
2023/01/30 08:48:24;;;;;;;21.30;4.65;;;;;;;;;;4965562;28;20050;-66
2023/01/30 08:50:54;;;;;;;24.85;4.45;;;;;;;;;;4984060;28;20058;-67
2023/01/30 08:53:20;;;;;;;25.77;4.82;;;;;;;;;;4963351;28;20053;-67
2023/01/30 08:55:49;;;;;;;21.10;4.07;;;;;;;;;;4966378;28;20421;-67
2023/01/30 08:58:15;;;;;;;24.77;4.10;;;;;;;;;;4953613;28;20499;-67
2023/01/30 09:00:43;;;;;;;19.92;5.13;;;;;;;;;;4933888;28;20051;-67
2023/01/30 09:03:10;;;;;;;26.55;4.53;;;;;;;;;;4958591;28;20738;-66
2023/01/30 09:05:36;;;;;;;19.63;4.72;;;;;;;;;;4969901;28;20043;-66
2023/01/30 09:08:03;;;;;;;24.92;4.38;;;;;;;;;;4974007;28;20133;-67
2023/01/30 09:10:29;;;;;;;25.30;5.03;;;;;;;;;;4975442;28;20058;-67
2023/01/30 09:12:55;;;;;;;28.48;5.82;;;;;;;;;;4946373;28;20043;-67
2023/01/30 09:15:21;;;;;;;15.85;4.07;;;;;;;;;;4947167;28;20047;-67
2023/01/30 09:17:47;;;;;;;28.05;5.57;;;;;;;;;;4958164;28;20073;-67
2023/01/30 09:20:13;;;;;;;26.50;4.60;;;;;;;;;;4980791;28;20552;-67
2023/01/30 09:22:39;;;;;;;16.77;4.13;;;;;;;;;;4979352;28;20511;-67
2023/01/30 09:25:07;;;;;;;22.70;4.68;;;;;;;;;;4977124;28;20046;-66
2023/01/30 09:27:33;;;;;;;23.77;4.85;;;;;;;;;;4963449;28;20716;-67
2023/01/30 09:29:59;;;;;;;24.50;5.32;;;;;;;;;;4962625;28;20050;-66
2023/01/30 09:32:25;;;;;;;32.38;5.25;;;;;;;;;;4972522;28;20046;-67
2023/01/30 09:34:51;;;;;;;22.60;4.75;;;;;;;;;;4957253;28;20046;-67
2023/01/30 09:37:17;;;;;;;19.45;4.47;;;;;;;;;;4978500;28;20055;-67
2023/01/30 09:39:42;;;;;;;22.15;3.80;;;9.40;99.90;;;;;;4960060;28;20049;-66
2023/01/30 09:42:20;;;;;;;30.52;5.18;;;;;;;;;;4978942;28;20308;-67
2023/01/30 09:44:52;;;;;;;21.58;4.13;;;;;;;;;;4985066;28;20049;-67
2023/01/30 09:47:28;;;;;;;22.80;4.28;;;;;;;;;;4964716;28;20054;-67
2023/01/30 09:50:24;;;;;;;19.50;4.25;;;8.90;99.90;;;;;;4947519;28;20871;-67
2023/01/30 09:53:02;;;;;;;28.67;4.35;;;;;;;;;;4974203;28;20042;-67
2023/01/30 09:55:29;;;;;;;26.15;5.70;;;;;;;;;;4955123;28;20051;-67
2023/01/30 09:57:56;;;;;;;27.33;4.72;;;;;;;;;;4974796;28;20047;-66
2023/01/30 10:00:28;;;;;;;25.00;4.82;;;;;;;;;;4969693;28;20044;-67
2023/01/30 10:03:10;;;;;;;28.83;4.65;;;;;;;;;;4969753;28;20060;-67
2023/01/30 10:05:39;;;;;;;25.23;4.35;;;;;;;;;;4956611;28;20054;-67
2023/01/30 10:08:34;;;;;;;24.67;4.30;;;;;;;;;;4955186;28;20145;-67
2023/01/30 10:11:15;;;;;;;37.80;6.43;;;;;;;;;;4935779;28;20062;-67
2023/01/30 10:14:00;;;;;;;26.00;4.75;;;;;;;;;;4956968;28;20054;-67
2023/01/30 10:16:31;;;;;;;21.52;5.03;;;;;;;;;;4962439;28;20380;-67
2023/01/30 10:19:06;;;;;;;24.73;4.50;;;;;;;;;;4977879;28;20092;-67
2023/01/30 10:21:51;;;;;;;24.77;5.28;;;;;;;;;;4956847;28;20427;-67
2023/01/30 10:24:36;;;;;;;31.63;8.02;;;;;;;;;;4939569;28;20049;-67
2023/01/30 10:27:02;;;;;;;22.52;4.88;;;;;;;;;;4974490;28;20439;-67
2023/01/30 10:29:33;;;;;;;30.17;5.72;;;;;;;;;;4958876;28;20570;-66
2023/01/30 10:32:04;;;;;;;21.42;4.10;;;;;;;;;;4981238;28;20050;-67
2023/01/30 10:34:30;;;;;;;23.65;5.97;;;;;;;;;;4962982;28;20038;-67
2023/01/30 10:37:08;;;;;;;23.75;5.07;;;;;;;;;;4973819;28;20062;-66
2023/01/30 10:39:55;;;;;;;26.88;5.22;;;;;;;;;;4953472;28;20050;-67
2023/01/30 10:42:25;;;;;;;26.02;4.45;;;;;;;;;;4956536;28;20057;-66
2023/01/30 10:44:54;;;;;;;27.77;4.95;;;;;;;;;;4973114;28;20043;-67
2023/01/30 10:47:39;;;;;;;19.02;5.50;;;;;;;;;;4970968;28;20086;-67
2023/01/30 10:50:16;;;;;;;24.95;4.78;;;;;;;;;;4970524;28;20081;-67
2023/01/30 10:52:48;;;;;;;28.63;6.00;;;;;;;;;;4957624;28;20042;-67
2023/01/30 10:55:26;;;;;;;31.02;5.53;;;;;;;;;;4955885;28;20408;-67
2023/01/30 10:57:58;;;;;;;24.55;4.75;;;;;;;;;;4960616;28;20096;-66
2023/01/30 11:00:29;;;;;;;22.70;5.13;;;;;;;;;;4968452;28;20051;-66
2023/01/30 11:03:09;;;;;;;29.42;4.70;;;;;;;;;;4971217;28;20089;-66
2023/01/30 11:05:46;;;;;;;27.13;5.30;;;;;;;;;;4979380;28;20038;-66
2023/01/30 11:08:18;;;;;;;27.55;4.78;;;;;;;;;;4955535;28;20050;-67
2023/01/30 11:10:44;;;;;;;31.98;4.90;;;;;;;;;;4957888;28;20050;-66
2023/01/30 11:13:16;;;;;;;33.72;4.97;;;;;;;;;;4977706;28;20046;-66
2023/01/30 11:15:44;;;;;;;23.88;4.95;;;;;;;;;;4981868;28;20043;-66
2023/01/30 11:18:11;;;;;;;20.27;4.25;;;;;;;;;;4962422;28;20858;-67
2023/01/30 11:20:41;;;;;;;18.75;4.03;;;;;;;;;;4977948;28;20057;-66
2023/01/30 11:23:21;;;;;;;17.05;3.58;;;;;;;;;;4957579;28;20057;-66
2023/01/30 11:25:48;;;;;;;21.35;3.55;;;;;;;;;;4971640;28;20094;-68
2023/01/30 11:28:16;;;;;;;16.80;3.75;;;;;;;;;;4961437;28;20082;-68
2023/01/30 11:30:42;;;;;;;26.13;4.60;;;;;;;;;;4957720;28;20157;-68
2023/01/30 11:33:13;;;;;;;19.70;4.53;;;;;;;;;;4979253;28;20050;-68
2023/01/30 11:35:53;;;;;;;20.17;5.28;;;;;;;;;;4977810;28;20746;-68
2023/01/30 11:38:25;;;;;;;30.42;5.22;;;;;;;;;;4974975;28;20864;-68
2023/01/30 11:41:01;;;;;;;24.00;6.28;;;;;;;;;;4962276;28;20085;-68
2023/01/30 11:43:28;;;;;;;23.73;5.15;;;;;;;;;;4984723;28;20839;-68
2023/01/30 11:45:54;;;;;;;28.08;5.45;;;;;;;;;;4973584;28;20492;-68
2023/01/30 11:48:22;;;;;;;19.95;4.05;;;;;;;;;;4958400;28;20483;-68
2023/01/30 11:50:49;;;;;;;31.75;5.88;;;;;;;;;;4972840;28;20038;-68
2023/01/30 11:53:20;;;;;;;30.35;4.13;;;;;;;;;;4945530;28;20053;-68
2023/01/30 11:55:46;;;;;;;17.65;3.15;;;;;;;;;;4954239;28;20054;-68
2023/01/30 11:58:13;;;;;;;14.98;3.40;;;;;;;;;;4974020;28;20071;-68
2023/01/30 12:00:40;;;;;;;13.90;2.45;;;;;;;;;;4953512;28;20145;-68
2023/01/30 12:03:10;;;;;;;14.25;2.63;;;;;;;;;;4956565;28;20065;-68
2023/01/30 12:05:41;;;;;;;10.95;2.80;;;;;;;;;;4985727;28;20045;-65
2023/01/30 12:08:13;;;;;;;7.28;3.15;;;;;;;;;;4983549;28;20500;-65
2023/01/30 12:10:44;;;;;;;15.80;3.05;;;8.40;99.90;;;;;;4958436;28;20408;-65
2023/01/30 12:13:15;;;;;;;14.07;3.75;;;;;;;;;;4974472;28;20142;-65
2023/01/30 12:15:44;;;;;;;15.18;3.25;;;;;;;;;;4957549;28;20461;-66
2023/01/30 12:18:20;;;;;;;16.50;3.83;;;;;;;;;;4978784;28;20039;-66
2023/01/30 12:21:00;;;;;;;27.75;5.10;;;9.20;99.90;;;;;;4978830;28;20156;-65
2023/01/30 12:23:29;;;;;;;20.70;4.70;;;;;;;;;;4981121;28;20403;-65
2023/01/30 12:26:41;;;;;;;19.13;4.30;;;9.40;99.90;;;;;;4965063;28;20070;-66
2023/01/30 12:29:20;;;;;;;14.02;4.75;;;;;;;;;;4969383;28;20054;-65
2023/01/30 12:31:49;;;;;;;18.75;3.85;;;;;;;;;;4945322;28;20047;-65
2023/01/30 12:34:15;;;;;;;21.13;3.80;;;;;;;;;;4967729;28;20575;-65
2023/01/30 12:36:45;;;;;;;16.10;4.20;;;;;;;;;;4984923;28;20443;-66
2023/01/30 12:39:39;;;;;;;11.30;3.10;;;11.80;99.90;;;;;;4953698;28;20059;-65
2023/01/30 12:42:08;;;;;;;13.98;3.10;;;;;;;;;;4978402;28;20081;-65
2023/01/30 12:44:57;;;;;;;14.65;2.78;;;10.80;99.90;;;;;;4964511;28;20676;-66
2023/01/30 12:47:46;;;;;;;15.90;2.70;;;;;;;;;;4974921;28;20057;-66
2023/01/30 12:50:13;;;;;;;13.50;2.78;;;;;;;;;;4964177;28;20768;-65
2023/01/30 12:52:58;;;;;;;11.57;2.78;;;;;;;;;;4959703;28;20081;-66
2023/01/30 12:55:34;;;;;;;16.77;3.35;;;;;;;;;;4955837;28;20050;-66
2023/01/30 12:58:03;;;;;;;14.68;3.00;;;;;;;;;;4962333;28;20058;-66
2023/01/30 13:00:34;;;;;;;9.20;2.22;;;;;;;;;;4958688;28;20412;-65
2023/01/30 13:03:22;;;;;;;19.17;3.60;;;;;;;;;;4980287;28;20043;-66
2023/01/30 13:05:52;;;;;;;16.30;3.67;;;;;;;;;;4961535;28;20050;-65
2023/01/30 13:08:45;;;;;;;17.02;3.47;;;;;;;;;;4974281;28;20050;-65
2023/01/30 13:11:20;;;;;;;24.08;3.97;;;;;;;;;;4981648;28;20038;-65
2023/01/30 13:13:51;;;;;;;17.17;4.00;;;;;;;;;;4975454;28;20815;-66
2023/01/30 13:16:17;;;;;;;19.38;4.05;;;;;;;;;;4965388;28;20803;-65
2023/01/30 13:18:51;;;;;;;22.10;4.30;;;;;;;;;;4963951;28;20137;-66
2023/01/30 13:21:34;;;;;;;21.20;4.03;;;;;;;;;;4963835;28;20485;-66
2023/01/30 13:24:05;;;;;;;24.95;5.55;;;;;;;;;;4979635;28;20038;-65
2023/01/30 13:26:34;;;;;;;20.20;4.28;;;;;;;;;;4981086;28;20042;-65
2023/01/30 13:29:03;;;;;;;28.23;6.53;;;;;;;;;;4954444;28;20124;-65
2023/01/30 13:31:35;;;;;;;32.05;5.28;;;;;;;;;;4958135;28;20749;-66
2023/01/30 13:34:06;;;;;;;27.95;5.63;;;;;;;;;;4964825;28;20046;-65
2023/01/30 13:36:35;;;;;;;34.53;5.60;;;;;;;;;;4963908;28;20042;-66
2023/01/30 13:39:08;;;;;;;25.13;5.03;;;;;;;;;;4959325;28;20059;-65
2023/01/30 13:41:40;;;;;;;26.17;4.15;;;;;;;;;;4960035;28;20089;-65
2023/01/30 13:44:14;;;;;;;21.27;4.53;;;;;;;;;;4982717;28;20522;-65
2023/01/30 13:46:41;;;;;;;35.50;5.93;;;;;;;;;;4980010;28;20081;-66
2023/01/30 13:49:12;;;;;;;30.90;5.78;;;;;;;;;;4981483;28;20046;-66
2023/01/30 13:51:44;;;;;;;31.20;5.47;;;;;;;;;;4983300;28;20112;-66
2023/01/30 13:54:10;;;;;;;41.45;6.25;;;;;;;;;;4975662;28;20046;-66
2023/01/30 13:56:42;;;;;;;37.08;6.57;;;;;;;;;;4960193;28;20088;-66
2023/01/30 13:59:08;;;;;;;33.85;4.93;;;;;;;;;;4958091;28;20054;-66
2023/01/30 14:01:58;;;;;;;29.92;6.05;;;;;;;;;;4958854;28;20641;-66
2023/01/30 14:04:30;;;;;;;30.45;5.45;;;;;;;;;;4946715;28;20835;-66
2023/01/30 14:07:08;;;;;;;29.90;5.72;;;;;;;;;;4955810;28;20137;-66
2023/01/30 14:09:34;;;;;;;27.00;5.25;;;;;;;;;;4951951;28;20134;-66
2023/01/30 14:12:02;;;;;;;29.10;5.68;;;;;;;;;;4957061;28;20051;-66
2023/01/30 14:14:30;;;;;;;28.20;5.68;;;;;;;;;;4971261;28;20579;-66
2023/01/30 14:17:07;;;;;;;28.52;5.00;;;;;;;;;;4972538;28;20045;-66
2023/01/30 14:19:36;;;;;;;28.48;5.90;;;;;;;;;;4974786;28;20041;-66
2023/01/30 14:22:17;;;;;;;26.92;5.28;;;;;;;;;;4960521;28;20638;-66
2023/01/30 14:24:43;;;;;;;29.08;4.53;;;;;;;;;;4960737;28;20049;-66
2023/01/30 14:27:24;;;;;;;34.67;5.35;;;;;;;;;;4962498;28;20047;-66
2023/01/30 14:29:50;;;;;;;31.40;5.78;;;;;;;;;;4961356;28;20520;-66
2023/01/30 14:32:19;;;;;;;24.65;6.43;;;;;;;;;;4976050;28;20042;-66
2023/01/30 14:34:46;;;;;;;36.47;5.50;;;;;;;;;;4953831;28;20038;-66
2023/01/30 14:37:30;;;;;;;35.53;4.63;;;;;;;;;;4958159;28;20090;-66
2023/01/30 14:39:58;;;;;;;27.35;4.97;;;;;;;;;;4957090;28;20496;-66
2023/01/30 14:42:25;;;;;;;26.40;5.80;;;;;;;;;;4958532;28;20503;-66
2023/01/30 14:44:58;;;;;;;39.53;8.40;;;;;;;;;;4958824;28;20168;-66
2023/01/30 14:47:24;;;;;;;32.15;8.18;;;;;;;;;;4956402;28;20078;-66
2023/01/30 14:49:51;;;;;;;27.60;5.60;;;;;;;;;;4972201;28;20124;-66
2023/01/30 14:52:29;;;;;;;32.50;7.68;;;;;;;;;;4960509;28;20046;-66